createdAt,value
2023-05-22T00:00:07.077Z,95595.00
2023-05-22T00:01:06.122Z,95591.00
2023-05-22T00:02:06.328Z,95591.00
2023-05-22T00:03:06.322Z,95595.00
2023-05-22T00:04:06.457Z,95595.00
2023-05-22T00:05:06.622Z,95595.00
2023-05-22T00:06:07.354Z,95596.00
2023-05-22T00:07:06.462Z,95596.00
2023-05-22T00:08:06.452Z,95595.00
2023-05-22T00:09:07.669Z,95596.00
2023-05-22T00:10:06.681Z,95596.00
2023-05-22T00:11:06.680Z,95596.00
2023-05-22T00:12:06.622Z,95593.00
2023-05-22T00:13:06.878Z,95596.00
2023-05-22T00:14:06.719Z,95596.00
2023-05-22T00:15:06.935Z,95596.00
2023-05-22T00:16:06.819Z,95596.00
2023-05-22T00:17:06.949Z,95593.00
2023-05-22T00:18:07.098Z,95595.00
2023-05-22T00:19:08.001Z,95595.00
2023-05-22T00:20:08.055Z,95595.00
2023-05-22T00:21:07.138Z,95595.00
2023-05-22T00:22:08.153Z,95596.00
2023-05-22T00:23:08.185Z,95595.00
2023-05-22T00:24:08.346Z,95596.00
2023-05-22T00:25:07.293Z,95595.00
2023-05-22T00:26:08.310Z,95591.00
2023-05-22T00:27:07.507Z,95591.00
2023-05-22T00:28:07.353Z,95596.00
2023-05-22T00:29:07.466Z,95595.00
2023-05-22T00:30:07.512Z,95591.00
2023-05-22T00:31:07.464Z,95593.00
2023-05-22T00:32:07.650Z,95589.00
2023-05-22T00:33:08.772Z,95591.00
2023-05-22T00:34:07.761Z,95591.00
2023-05-22T00:35:07.889Z,95593.00
2023-05-22T00:36:08.955Z,95593.00
2023-05-22T00:37:08.984Z,95595.00
2023-05-22T00:38:07.765Z,95596.00
2023-05-22T00:39:09.080Z,95596.00
2023-05-22T00:40:09.079Z,95596.00
2023-05-22T00:41:08.138Z,95596.00
2023-05-22T00:42:07.935Z,95596.00
2023-05-22T00:43:09.095Z,95596.00
2023-05-22T00:44:08.057Z,95596.00
2023-05-22T00:45:09.089Z,95595.00
2023-05-22T00:46:08.286Z,95595.00
2023-05-22T00:47:08.187Z,95595.00
2023-05-22T00:48:08.259Z,95598.00
2023-05-22T00:49:08.334Z,95596.00
2023-05-22T00:50:08.270Z,95602.00
2023-05-22T00:51:08.348Z,95600.00
2023-05-22T00:52:08.420Z,95598.00
2023-05-22T00:53:08.440Z,95600.00
2023-05-22T00:54:09.593Z,95598.00
2023-05-22T00:55:09.527Z,95598.00
2023-05-22T00:56:08.713Z,95598.00
2023-05-22T00:57:08.650Z,95598.00
2023-05-22T00:58:08.902Z,95596.00
2023-05-22T00:59:08.737Z,95600.00
2023-05-22T01:00:09.795Z,95602.00
2023-05-22T01:01:08.935Z,95602.00
2023-05-22T01:02:09.994Z,95598.00
2023-05-22T01:03:08.985Z,95598.00
2023-05-22T01:04:10.189Z,95600.00
2023-05-22T01:05:09.114Z,95600.00
2023-05-22T01:06:09.168Z,95598.00
2023-05-22T01:07:09.162Z,95600.00
2023-05-22T01:08:10.357Z,95598.00
2023-05-22T01:09:10.433Z,95600.00
2023-05-22T01:10:09.420Z,95602.00
2023-05-22T01:11:10.480Z,95604.00
2023-05-22T01:12:09.554Z,95602.00
2023-05-22T01:13:10.410Z,95602.00
2023-05-22T01:14:10.406Z,95602.00
2023-05-22T01:15:09.470Z,95604.00
2023-05-22T01:16:09.577Z,95608.00
2023-05-22T01:17:09.597Z,95606.00
2023-05-22T01:18:09.939Z,95608.00
2023-05-22T01:19:10.940Z,95608.00
2023-05-22T01:20:09.857Z,95608.00
2023-05-22T01:21:09.910Z,95606.00
2023-05-22T01:22:09.971Z,95608.00
2023-05-22T01:23:11.052Z,95608.00
2023-05-22T01:24:10.048Z,95608.00
2023-05-22T01:25:09.995Z,95608.00
2023-05-22T01:26:10.055Z,95608.00
2023-05-22T01:27:10.204Z,95610.00
2023-05-22T01:28:10.273Z,95610.00
2023-05-22T01:29:10.307Z,95612.00
2023-05-22T01:30:11.356Z,95612.00
2023-05-22T01:31:10.448Z,95612.00
2023-05-22T01:32:11.357Z,95614.00
2023-05-22T01:33:10.589Z,95606.00
2023-05-22T01:34:11.628Z,95614.00
2023-05-22T01:35:10.683Z,95612.00
2023-05-22T01:36:11.529Z,95618.00
2023-05-22T01:37:11.822Z,95612.00
2023-05-22T01:38:11.701Z,95614.00
2023-05-22T01:39:11.775Z,95614.00
2023-05-22T01:40:10.833Z,95612.00
2023-05-22T01:41:10.755Z,95614.00
2023-05-22T01:42:10.803Z,95614.00
2023-05-22T01:43:11.976Z,95614.00
2023-05-22T01:44:11.215Z,95616.00
2023-05-22T01:45:10.900Z,95614.00
2023-05-22T01:46:12.134Z,95612.00
2023-05-22T01:47:11.017Z,95614.00
2023-05-22T01:48:11.170Z,95614.00
2023-05-22T01:49:11.368Z,95616.00
2023-05-22T01:50:11.330Z,95616.00
2023-05-22T01:51:11.205Z,95616.00
2023-05-22T01:52:11.303Z,95616.00
2023-05-22T01:53:12.543Z,95616.00
2023-05-22T01:54:11.328Z,95618.00
2023-05-22T01:55:11.376Z,95618.00
2023-05-22T01:56:12.091Z,95620.00
2023-05-22T01:57:12.537Z,95622.00
2023-05-22T01:58:12.565Z,95622.00
2023-05-22T01:59:11.656Z,95624.00
2023-05-22T02:00:11.731Z,95626.00
2023-05-22T02:01:11.801Z,95626.00
2023-05-22T02:02:12.751Z,95626.00
2023-05-22T02:03:12.001Z,95624.00
2023-05-22T02:04:11.785Z,95624.00
2023-05-22T02:05:12.822Z,95626.00
2023-05-22T02:06:11.851Z,95628.00
2023-05-22T02:07:12.868Z,95628.00
2023-05-22T02:08:11.898Z,95630.00
2023-05-22T02:09:12.953Z,95630.00
2023-05-22T02:10:12.950Z,95628.00
2023-05-22T02:11:11.998Z,95628.00
2023-05-22T02:12:12.010Z,95626.00
2023-05-22T02:13:13.047Z,95626.00
2023-05-22T02:14:12.087Z,95628.00
2023-05-22T02:15:13.067Z,95628.00
2023-05-22T02:16:12.212Z,95624.00
2023-05-22T02:17:13.114Z,95630.00
2023-05-22T02:18:13.224Z,95626.00
2023-05-22T02:19:13.201Z,95628.00
2023-05-22T02:20:13.191Z,95626.00
2023-05-22T02:21:13.248Z,95626.00
2023-05-22T02:22:12.267Z,95628.00
2023-05-22T02:23:13.314Z,95628.00
2023-05-22T02:24:13.329Z,95628.00
2023-05-22T02:25:13.333Z,95626.00
2023-05-22T02:26:13.358Z,95628.00
2023-05-22T02:27:12.377Z,95628.00
2023-05-22T02:28:13.394Z,95630.00
2023-05-22T02:29:12.417Z,95632.00
2023-05-22T02:30:12.509Z,95626.00
2023-05-22T02:31:13.500Z,95628.00
2023-05-22T02:32:12.510Z,95628.00
2023-05-22T02:33:13.523Z,95624.00
2023-05-22T02:34:12.541Z,95628.00
2023-05-22T02:35:13.596Z,95628.00
2023-05-22T02:36:12.625Z,95630.00
2023-05-22T02:37:12.650Z,95628.00
2023-05-22T02:38:12.663Z,95624.00
2023-05-22T02:39:12.669Z,95624.00
2023-05-22T02:40:13.673Z,95622.00
2023-05-22T02:41:12.685Z,95628.00
2023-05-22T02:42:13.694Z,95628.00
2023-05-22T02:43:12.721Z,95628.00
2023-05-22T02:44:12.726Z,95628.00
2023-05-22T02:45:12.739Z,95630.00
2023-05-22T02:46:13.828Z,95626.00
2023-05-22T02:47:13.743Z,95630.00
2023-05-22T02:48:13.855Z,95628.00
2023-05-22T02:49:12.812Z,95628.00
2023-05-22T02:50:12.815Z,95630.00
2023-05-22T02:51:13.810Z,95630.00
2023-05-22T02:52:12.814Z,95630.00
2023-05-22T02:53:13.807Z,95628.00
2023-05-22T02:54:12.823Z,95628.00
2023-05-22T02:55:12.833Z,95626.00
2023-05-22T02:56:12.835Z,95628.00
2023-05-22T02:57:13.820Z,95630.00
2023-05-22T02:58:13.852Z,95632.00
2023-05-22T02:59:12.839Z,95630.00
2023-05-22T03:00:13.899Z,95632.00
2023-05-22T03:01:13.838Z,95636.00
2023-05-22T03:02:13.834Z,95634.00
2023-05-22T03:03:13.941Z,95636.00
2023-05-22T03:04:14.005Z,95638.00
2023-05-22T03:05:13.847Z,95638.00
2023-05-22T03:06:13.840Z,95642.00
2023-05-22T03:07:12.845Z,95642.00
2023-05-22T03:08:13.845Z,95647.00
2023-05-22T03:09:13.816Z,95645.00
2023-05-22T03:10:13.820Z,95645.00
2023-05-22T03:11:13.809Z,95645.00
2023-05-22T03:12:12.820Z,95645.00
2023-05-22T03:13:13.815Z,95647.00
2023-05-22T03:14:13.823Z,95645.00
2023-05-22T03:15:13.833Z,95649.00
2023-05-22T03:16:12.880Z,95643.00
2023-05-22T03:17:12.831Z,95643.00
2023-05-22T03:18:13.827Z,95647.00
2023-05-22T03:19:12.942Z,95649.00
2023-05-22T03:20:12.867Z,95651.00
2023-05-22T03:21:13.837Z,95651.00
2023-05-22T03:22:13.859Z,95651.00
2023-05-22T03:23:13.841Z,95649.00
2023-05-22T03:24:12.838Z,95653.00
2023-05-22T03:25:13.875Z,95655.00
2023-05-22T03:26:12.836Z,95655.00
2023-05-22T03:27:13.838Z,95655.00
2023-05-22T03:28:13.832Z,95655.00
2023-05-22T03:29:13.846Z,95653.00
2023-05-22T03:30:12.836Z,95651.00
2023-05-22T03:31:12.821Z,95651.00
2023-05-22T03:32:12.829Z,95655.00
2023-05-22T03:33:12.865Z,95651.00
2023-05-22T03:34:13.811Z,95653.00
2023-05-22T03:35:12.820Z,95653.00
2023-05-22T03:36:12.836Z,95651.00
2023-05-22T03:37:13.805Z,95653.00
2023-05-22T03:38:13.805Z,95655.00
2023-05-22T03:39:12.791Z,95653.00
2023-05-22T03:40:13.850Z,95653.00
2023-05-22T03:41:13.789Z,95651.00
2023-05-22T03:42:12.789Z,95655.00
2023-05-22T03:43:13.794Z,95653.00
2023-05-22T03:44:12.781Z,95653.00
2023-05-22T03:45:12.786Z,95655.00
2023-05-22T03:46:13.833Z,95655.00
2023-05-22T03:47:13.767Z,95653.00
2023-05-22T03:48:12.771Z,95657.00
2023-05-22T03:49:13.776Z,95653.00
2023-05-22T03:50:13.779Z,95659.00
2023-05-22T03:51:13.762Z,95659.00
2023-05-22T03:52:12.798Z,95659.00
2023-05-22T03:53:13.753Z,95657.00
2023-05-22T03:54:13.772Z,95655.00
2023-05-22T03:55:12.800Z,95657.00
2023-05-22T03:56:12.767Z,95655.00
2023-05-22T03:57:12.756Z,95655.00
2023-05-22T03:58:13.773Z,95657.00
2023-05-22T03:59:12.762Z,95657.00
2023-05-22T04:00:12.746Z,95659.00
2023-05-22T04:01:12.764Z,95659.00
2023-05-22T04:02:12.813Z,95661.00
2023-05-22T04:03:13.953Z,95663.00
2023-05-22T04:04:12.755Z,95663.00
2023-05-22T04:05:13.834Z,95663.00
2023-05-22T04:06:13.851Z,95665.00
2023-05-22T04:07:13.728Z,95665.00
2023-05-22T04:08:13.743Z,95665.00
2023-05-22T04:09:13.741Z,95665.00
2023-05-22T04:10:13.745Z,95663.00
2023-05-22T04:11:13.720Z,95663.00
2023-05-22T04:12:12.728Z,95663.00
2023-05-22T04:13:13.701Z,95663.00
2023-05-22T04:14:13.695Z,95665.00
2023-05-22T04:15:12.684Z,95663.00
2023-05-22T04:16:13.796Z,95663.00
2023-05-22T04:17:12.697Z,95663.00
2023-05-22T04:18:12.716Z,95663.00
2023-05-22T04:19:13.615Z,95665.00
2023-05-22T04:20:12.718Z,95659.00
2023-05-22T04:21:13.682Z,95665.00
2023-05-22T04:22:12.663Z,95673.00
2023-05-22T04:23:12.665Z,95673.00
2023-05-22T04:24:13.700Z,95675.00
2023-05-22T04:25:13.653Z,95675.00
2023-05-22T04:26:12.642Z,95677.00
2023-05-22T04:27:12.645Z,95677.00
2023-05-22T04:28:13.651Z,95679.00
2023-05-22T04:29:12.630Z,95679.00
2023-05-22T04:30:12.642Z,95677.00
2023-05-22T04:31:13.685Z,95677.00
2023-05-22T04:32:12.635Z,95677.00
2023-05-22T04:33:13.727Z,95677.00
2023-05-22T04:34:12.612Z,95679.00
2023-05-22T04:35:12.610Z,95679.00
2023-05-22T04:36:12.757Z,95679.00
2023-05-22T04:37:12.607Z,95681.00
2023-05-22T04:38:12.593Z,95681.00
2023-05-22T04:39:12.598Z,95681.00
2023-05-22T04:40:13.608Z,95681.00
2023-05-22T04:41:12.587Z,95683.00
2023-05-22T04:42:12.580Z,95679.00
2023-05-22T04:43:13.594Z,95681.00
2023-05-22T04:44:13.569Z,95681.00
2023-05-22T04:45:13.576Z,95681.00
2023-05-22T04:46:12.620Z,95681.00
2023-05-22T04:47:13.611Z,95683.00
2023-05-22T04:48:12.567Z,95683.00
2023-05-22T04:49:13.573Z,95685.00
2023-05-22T04:50:13.559Z,95687.00
2023-05-22T04:51:13.554Z,95689.00
2023-05-22T04:52:12.546Z,95689.00
2023-05-22T04:53:12.559Z,95691.00
2023-05-22T04:54:13.546Z,95689.00
2023-05-22T04:55:12.561Z,95691.00
2023-05-22T04:56:16.655Z,95689.00
2023-05-22T04:57:13.535Z,95691.00
2023-05-22T04:58:13.544Z,95691.00
2023-05-22T04:59:12.524Z,95691.00
2023-05-22T05:00:13.527Z,95691.00
2023-05-22T05:01:12.558Z,95691.00
2023-05-22T05:02:13.499Z,95693.00
2023-05-22T05:03:13.555Z,95693.00
2023-05-22T05:04:12.517Z,95693.00
2023-05-22T05:05:13.479Z,95693.00
2023-05-22T05:06:13.453Z,95695.00
2023-05-22T05:07:13.450Z,95693.00
2023-05-22T05:08:12.450Z,95693.00
2023-05-22T05:09:13.430Z,95693.00
2023-05-22T05:10:12.435Z,95693.00
2023-05-22T05:11:13.433Z,95693.00
2023-05-22T05:12:12.439Z,95693.00
2023-05-22T05:13:13.395Z,95693.00
2023-05-22T05:14:12.406Z,95693.00
2023-05-22T05:15:12.389Z,95691.00
2023-05-22T05:16:13.405Z,95691.00
2023-05-22T05:17:12.403Z,95691.00
2023-05-22T05:18:12.462Z,95691.00
2023-05-22T05:19:13.369Z,95691.00
2023-05-22T05:20:13.345Z,95693.00
2023-05-22T05:21:13.346Z,95693.00
2023-05-22T05:22:13.329Z,95693.00
2023-05-22T05:23:12.311Z,95693.00
2023-05-22T05:24:13.305Z,95693.00
2023-05-22T05:25:13.338Z,95693.00
2023-05-22T05:26:12.296Z,95693.00
2023-05-22T05:27:13.303Z,95693.00
2023-05-22T05:28:13.323Z,95693.00
2023-05-22T05:29:12.286Z,95693.00
2023-05-22T05:30:13.302Z,95695.00
2023-05-22T05:31:13.271Z,95695.00
2023-05-22T05:32:12.372Z,95695.00
2023-05-22T05:33:13.330Z,95693.00
2023-05-22T05:34:13.257Z,95698.00
2023-05-22T05:35:12.247Z,95695.00
2023-05-22T05:36:13.244Z,95693.00
2023-05-22T05:37:12.215Z,95695.00
2023-05-22T05:38:12.213Z,95693.00
2023-05-22T05:39:13.210Z,95691.00
2023-05-22T05:40:13.210Z,95695.00
2023-05-22T05:41:13.202Z,95693.00
2023-05-22T05:42:13.186Z,95695.00
2023-05-22T05:43:13.162Z,95693.00
2023-05-22T05:44:13.187Z,95691.00
2023-05-22T05:48:13.122Z,95691.00
2023-05-22T05:49:13.122Z,95689.00
2023-05-22T05:50:13.109Z,95691.00
2023-05-22T05:51:12.112Z,95689.00
2023-05-22T05:52:12.108Z,95691.00
2023-05-22T05:53:13.094Z,95691.00
2023-05-22T05:54:13.080Z,95691.00
2023-05-22T05:55:13.076Z,95693.00
2023-05-22T05:56:12.057Z,95693.00
2023-05-22T05:57:13.050Z,95693.00
2023-05-22T05:58:12.074Z,95693.00
2023-05-22T05:59:12.030Z,95695.00
2023-05-22T06:00:13.232Z,95696.00
2023-05-22T06:01:13.044Z,95695.00
2023-05-22T06:02:13.100Z,95695.00
2023-05-22T06:03:12.098Z,95698.00
2023-05-22T06:04:13.016Z,95696.00
2023-05-22T06:05:13.016Z,95696.00
2023-05-22T06:06:12.994Z,95696.00
2023-05-22T06:07:11.980Z,95700.00
2023-05-22T06:08:12.998Z,95698.00
2023-05-22T06:09:12.009Z,95698.00
2023-05-22T06:10:12.958Z,95696.00
2023-05-22T06:11:11.953Z,95700.00
2023-05-22T06:12:13.021Z,95698.00
2023-05-22T06:13:12.920Z,95700.00
2023-05-22T06:14:12.955Z,95696.00
2023-05-22T06:15:11.922Z,95695.00
2023-05-22T06:16:13.116Z,95696.00
2023-05-22T06:17:12.904Z,95696.00
2023-05-22T06:18:12.936Z,95696.00
2023-05-22T06:19:11.935Z,95698.00
2023-05-22T06:20:12.860Z,95696.00
2023-05-22T06:21:12.894Z,95698.00
2023-05-22T06:22:12.859Z,95698.00
2023-05-22T06:23:12.851Z,95698.00
2023-05-22T06:24:12.831Z,95698.00
2023-05-22T06:25:12.812Z,95696.00
2023-05-22T06:26:11.823Z,95696.00
2023-05-22T06:27:12.814Z,95696.00
2023-05-22T06:28:12.811Z,95696.00
2023-05-22T06:29:12.799Z,95693.00
2023-05-22T06:30:11.805Z,95696.00
2023-05-22T06:31:11.798Z,95695.00
2023-05-22T06:32:12.917Z,95695.00
2023-05-22T06:33:13.031Z,95695.00
2023-05-22T06:34:12.929Z,95695.00
2023-05-22T06:35:12.954Z,95693.00
2023-05-22T06:36:12.966Z,95693.00
2023-05-22T06:37:11.971Z,95691.00
2023-05-22T06:38:13.032Z,95689.00
2023-05-22T06:39:13.003Z,95693.00
2023-05-22T06:40:11.969Z,95693.00
2023-05-22T06:41:13.017Z,95691.00
2023-05-22T06:42:13.063Z,95689.00
2023-05-22T06:43:13.106Z,95687.00
2023-05-22T06:44:13.129Z,95689.00
2023-05-22T06:45:13.124Z,95687.00
2023-05-22T06:46:13.181Z,95685.00
2023-05-22T06:47:13.149Z,95681.00
2023-05-22T06:48:12.265Z,95683.00
2023-05-22T06:49:13.187Z,95683.00
2023-05-22T06:50:13.189Z,95681.00
2023-05-22T06:51:12.254Z,95679.00
2023-05-22T06:52:12.310Z,95679.00
2023-05-22T06:53:13.359Z,95679.00
2023-05-22T06:54:13.404Z,95681.00
2023-05-22T06:55:13.435Z,95677.00
2023-05-22T06:56:12.504Z,95677.00
2023-05-22T06:57:13.619Z,95675.00
2023-05-22T06:58:12.611Z,95675.00
2023-05-22T06:59:13.651Z,95677.00
2023-05-22T07:00:13.679Z,95675.00
2023-05-22T07:01:12.818Z,95677.00
2023-05-22T07:02:12.811Z,95675.00
2023-05-22T07:03:14.001Z,95675.00
2023-05-22T07:04:13.082Z,95675.00
2023-05-22T07:05:13.954Z,95679.00
2023-05-22T07:06:13.047Z,95677.00
2023-05-22T07:07:12.993Z,95679.00
2023-05-22T07:08:13.067Z,95677.00
2023-05-22T07:09:14.114Z,95677.00
2023-05-22T07:10:14.154Z,95679.00
2023-05-22T07:11:13.201Z,95677.00
2023-05-22T07:12:14.238Z,95675.00
2023-05-22T07:13:14.307Z,95675.00
2023-05-22T07:14:13.352Z,95675.00
2023-05-22T07:15:14.444Z,95673.00
2023-05-22T07:16:13.481Z,95665.00
2023-05-22T07:17:14.516Z,95673.00
2023-05-22T07:18:14.743Z,95675.00
2023-05-22T07:19:13.610Z,95673.00
2023-05-22T07:20:14.680Z,95673.00
2023-05-22T07:21:14.696Z,95665.00
2023-05-22T07:22:14.767Z,95665.00
2023-05-22T07:23:14.836Z,95665.00
2023-05-22T07:24:13.879Z,95663.00
2023-05-22T07:25:14.957Z,95663.00
2023-05-22T07:26:14.981Z,95661.00
2023-05-22T07:27:15.083Z,95661.00
2023-05-22T07:28:15.087Z,95657.00
2023-05-22T07:29:15.153Z,95659.00
2023-05-22T07:30:15.219Z,95655.00
2023-05-22T07:31:15.293Z,95657.00
2023-05-22T07:32:15.429Z,95657.00
2023-05-22T07:33:15.367Z,95657.00
2023-05-22T07:34:14.405Z,95653.00
2023-05-22T07:35:14.458Z,95653.00
2023-05-22T07:36:15.545Z,95653.00
2023-05-22T07:37:15.616Z,95651.00
2023-05-22T07:38:14.626Z,95651.00
2023-05-22T07:39:15.698Z,95653.00
2023-05-22T07:40:14.732Z,95651.00
2023-05-22T07:41:14.787Z,95647.00
2023-05-22T07:42:15.868Z,95645.00
2023-05-22T07:43:15.908Z,95647.00
2023-05-22T07:44:15.947Z,95647.00
2023-05-22T07:45:16.026Z,95643.00
2023-05-22T07:46:15.076Z,95642.00
2023-05-22T07:47:15.116Z,95642.00
2023-05-22T07:48:16.247Z,95642.00
2023-05-22T07:49:15.234Z,95642.00
2023-05-22T07:50:16.287Z,95640.00
2023-05-22T07:51:16.349Z,95643.00
2023-05-22T07:52:16.967Z,95640.00
2023-05-22T07:53:15.452Z,95642.00
2023-05-22T07:54:16.503Z,95640.00
2023-05-22T07:55:16.558Z,95638.00
2023-05-22T07:56:16.618Z,95640.00
2023-05-22T07:57:16.689Z,95638.00
2023-05-22T07:58:16.745Z,95640.00
2023-05-22T07:59:16.785Z,95638.00
2023-05-22T08:00:16.856Z,95640.00
2023-05-22T08:01:16.906Z,95638.00
2023-05-22T08:02:15.971Z,95634.00
2023-05-22T08:03:17.410Z,95632.00
2023-05-22T08:04:16.280Z,95632.00
2023-05-22T08:05:16.276Z,95632.00
2023-05-22T08:06:17.178Z,95632.00
2023-05-22T08:07:16.243Z,95624.00
2023-05-22T08:08:17.528Z,95624.00
2023-05-22T08:09:16.366Z,95626.00
2023-05-22T08:10:17.428Z,95624.00
2023-05-22T08:11:17.469Z,95624.00
2023-05-22T08:12:17.541Z,95620.00
2023-05-22T08:13:16.591Z,95624.00
2023-05-22T08:14:17.662Z,95620.00
2023-05-22T08:15:16.729Z,95620.00
2023-05-22T08:16:17.777Z,95618.00
2023-05-22T08:17:17.953Z,95620.00
2023-05-22T08:18:17.910Z,95618.00
2023-05-22T08:19:18.049Z,95618.00
2023-05-22T08:20:18.068Z,95618.00
2023-05-22T08:21:18.080Z,95614.00
2023-05-22T08:22:17.151Z,95614.00
2023-05-22T08:23:17.191Z,95614.00
2023-05-22T08:24:18.476Z,95612.00
2023-05-22T08:25:18.309Z,95610.00
2023-05-22T08:26:18.385Z,95608.00
2023-05-22T08:27:17.424Z,95608.00
2023-05-22T08:28:17.513Z,95608.00
2023-05-22T08:29:18.543Z,95610.00
2023-05-22T08:30:18.599Z,95606.00
2023-05-22T08:31:18.745Z,95608.00
2023-05-22T08:32:18.856Z,95608.00
2023-05-22T08:33:17.835Z,95606.00
2023-05-22T08:34:18.865Z,95606.00
2023-05-22T08:35:17.909Z,95604.00
2023-05-22T08:36:18.964Z,95608.00
2023-05-22T08:37:18.033Z,95606.00
2023-05-22T08:38:19.089Z,95602.00
2023-05-22T08:39:19.448Z,95602.00
2023-05-22T08:40:18.447Z,95602.00
2023-05-22T08:41:19.262Z,95600.00
2023-05-22T08:42:19.656Z,95600.00
2023-05-22T08:43:19.356Z,95600.00
2023-05-22T08:44:19.424Z,95598.00
2023-05-22T08:45:18.482Z,95598.00
2023-05-22T08:46:19.586Z,95595.00
2023-05-22T08:47:19.612Z,95593.00
2023-05-22T08:48:18.612Z,95591.00
2023-05-22T08:49:20.412Z,95591.00
2023-05-22T08:50:19.648Z,95589.00
2023-05-22T08:51:18.647Z,95587.00
2023-05-22T08:52:19.631Z,95587.00
2023-05-22T08:53:19.637Z,95587.00
2023-05-22T08:54:18.613Z,95583.00
2023-05-22T08:55:19.638Z,95581.00
2023-05-22T08:56:19.647Z,95579.00
2023-05-22T08:57:19.647Z,95577.00
2023-05-22T08:58:18.608Z,95575.00
2023-05-22T08:59:19.595Z,95575.00
2023-05-22T09:00:19.598Z,95577.00
2023-05-22T09:01:19.602Z,95575.00
2023-05-22T09:02:18.574Z,95575.00
2023-05-22T09:03:19.749Z,95573.00
2023-05-22T09:04:19.563Z,95573.00
2023-05-22T09:05:18.548Z,95575.00
2023-05-22T09:06:19.525Z,95575.00
2023-05-22T09:07:18.529Z,95575.00
2023-05-22T09:08:21.030Z,95573.00
2023-05-22T09:09:19.525Z,95571.00
2023-05-22T09:10:18.510Z,95569.00
2023-05-22T09:11:19.519Z,95567.00
2023-05-22T09:12:18.677Z,95563.00
2023-05-22T09:13:19.479Z,95563.00
2023-05-22T09:14:18.475Z,95563.00
2023-05-22T09:15:18.462Z,95561.00
2023-05-22T09:16:19.477Z,95561.00
2023-05-22T09:17:19.455Z,95561.00
2023-05-22T09:18:19.443Z,95557.00
2023-05-22T09:19:19.534Z,95557.00
2023-05-22T09:20:19.428Z,95557.00
2023-05-22T09:21:29.541Z,95557.00
2023-05-22T09:22:20.127Z,95557.00
2023-05-22T09:23:19.396Z,95559.00
2023-05-22T09:24:19.400Z,95557.00
2023-05-22T09:25:19.376Z,95557.00
2023-05-22T09:26:19.377Z,95555.00
2023-05-22T09:27:19.367Z,95553.00
2023-05-22T09:28:19.393Z,95555.00
2023-05-22T09:29:19.358Z,95553.00
2023-05-22T09:30:18.359Z,95553.00
2023-05-22T09:31:18.340Z,95555.00
2023-05-22T09:32:19.339Z,95553.00
2023-05-22T09:33:19.326Z,95555.00
2023-05-22T09:34:19.309Z,95553.00
2023-05-22T09:35:19.329Z,95551.00
2023-05-22T09:36:19.292Z,95553.00
2023-05-22T09:37:19.302Z,95553.00
2023-05-22T09:38:19.291Z,95553.00
2023-05-22T09:39:19.293Z,95549.00
2023-05-22T09:40:19.284Z,95555.00
2023-05-22T09:41:19.284Z,95551.00
2023-05-22T09:42:19.260Z,95549.00
2023-05-22T09:43:19.243Z,95549.00
2023-05-22T09:44:18.279Z,95551.00
2023-05-22T09:45:18.239Z,95548.00
2023-05-22T09:46:19.253Z,95546.00
2023-05-22T09:47:19.698Z,95549.00
2023-05-22T09:48:19.229Z,95548.00
2023-05-22T09:49:18.218Z,95546.00
2023-05-22T09:50:19.195Z,95546.00
2023-05-22T09:51:18.191Z,95542.00
2023-05-22T09:52:19.683Z,95540.00
2023-05-22T09:53:19.245Z,95536.00
2023-05-22T09:54:19.280Z,95538.00
2023-05-22T09:55:18.319Z,95536.00
2023-05-22T09:56:27.523Z,95534.00
2023-05-22T09:57:19.379Z,95534.00
2023-05-22T09:58:19.347Z,95534.00
2023-05-22T09:59:18.347Z,95532.00
2023-05-22T10:00:19.631Z,95528.00
2023-05-22T10:01:19.364Z,95526.00
2023-05-22T10:02:19.337Z,95526.00
2023-05-22T10:03:19.334Z,95528.00
2023-05-22T10:04:18.362Z,95524.00
2023-05-22T10:05:18.293Z,95524.00
2023-05-22T10:06:19.306Z,95522.00
2023-05-22T10:07:18.292Z,95522.00
2023-05-22T10:08:18.275Z,95520.00
2023-05-22T10:09:19.822Z,95518.00
2023-05-22T10:10:18.276Z,95518.00
2023-05-22T10:11:19.254Z,95516.00
2023-05-22T10:12:19.256Z,95514.00
2023-05-22T10:13:19.241Z,95514.00
2023-05-22T10:14:19.237Z,95512.00
2023-05-22T10:15:19.230Z,95512.00
2023-05-22T10:16:18.451Z,95510.00
2023-05-22T10:17:19.211Z,95508.00
2023-05-22T10:18:19.205Z,95508.00
2023-05-22T10:19:19.240Z,95506.00
2023-05-22T10:20:19.196Z,95504.00
2023-05-22T10:21:18.172Z,95500.00
2023-05-22T10:22:19.166Z,95504.00
2023-05-22T10:23:19.267Z,95500.00
2023-05-22T10:24:19.143Z,95502.00
2023-05-22T10:25:18.199Z,95502.00
2023-05-22T10:26:19.231Z,95498.00
2023-05-22T10:27:19.304Z,95500.00
2023-05-22T10:28:18.322Z,95498.00
2023-05-22T10:29:19.363Z,95496.00
2023-05-22T10:30:18.404Z,95496.00
2023-05-22T10:31:19.442Z,95496.00
2023-05-22T10:32:18.665Z,95493.00
2023-05-22T10:33:18.606Z,95493.00
2023-05-22T10:34:19.565Z,95493.00
2023-05-22T10:35:19.591Z,95493.00
2023-05-22T10:36:19.669Z,95491.00
2023-05-22T10:37:21.214Z,95489.00
2023-05-22T10:38:19.686Z,95487.00
2023-05-22T10:39:19.663Z,95487.00
2023-05-22T10:40:19.667Z,95487.00
2023-05-22T10:41:19.639Z,95483.00
2023-05-22T10:42:18.660Z,95483.00
2023-05-22T10:43:18.705Z,95481.00
2023-05-22T10:44:19.619Z,95481.00
2023-05-22T10:45:18.629Z,95481.00
2023-05-22T10:46:18.616Z,95479.00
2023-05-22T10:47:19.732Z,95477.00
2023-05-22T10:48:18.714Z,95479.00
2023-05-22T10:49:19.587Z,95477.00
2023-05-22T10:50:19.673Z,95475.00
2023-05-22T10:51:19.572Z,95473.00
2023-05-22T10:52:18.594Z,95471.00
2023-05-22T10:53:19.566Z,95471.00
2023-05-22T10:54:18.570Z,95469.00
2023-05-22T10:55:19.549Z,95469.00
2023-05-22T10:56:18.544Z,95465.00
2023-05-22T10:57:19.514Z,95467.00
2023-05-22T10:58:19.528Z,95465.00
2023-05-22T10:59:19.513Z,95463.00
2023-05-22T11:00:19.505Z,95461.00
2023-05-22T11:01:19.548Z,95461.00
2023-05-22T11:02:19.547Z,95457.00
2023-05-22T11:03:19.530Z,95457.00
2023-05-22T11:04:19.654Z,95455.00
2023-05-22T11:05:18.477Z,95455.00
2023-05-22T11:06:19.456Z,95451.00
2023-05-22T11:07:19.460Z,95453.00
2023-05-22T11:08:19.587Z,95451.00
2023-05-22T11:09:18.438Z,95449.00
2023-05-22T11:10:19.427Z,95449.00
2023-05-22T11:11:18.433Z,95447.00
2023-05-22T11:12:19.580Z,95444.00
2023-05-22T11:13:18.484Z,95446.00
2023-05-22T11:14:18.506Z,95442.00
2023-05-22T11:15:19.543Z,95442.00
2023-05-22T11:16:19.636Z,95440.00
2023-05-22T11:17:19.605Z,95440.00
2023-05-22T11:18:18.702Z,95438.00
2023-05-22T11:19:23.710Z,95436.00
2023-05-22T11:20:19.791Z,95436.00
2023-05-22T11:21:19.704Z,95440.00
2023-05-22T11:22:18.712Z,95434.00
2023-05-22T11:23:18.736Z,95434.00
2023-05-22T11:24:19.748Z,95436.00
2023-05-22T11:25:19.797Z,95432.00
2023-05-22T11:26:19.827Z,95432.00
2023-05-22T11:27:18.879Z,95430.00
2023-05-22T11:28:18.876Z,95430.00
2023-05-22T11:29:18.910Z,95426.00
2023-05-22T11:30:18.927Z,95424.00
2023-05-22T11:31:20.042Z,95424.00
2023-05-22T11:32:19.027Z,95422.00
2023-05-22T11:33:20.149Z,95424.00
2023-05-22T11:34:20.065Z,95422.00
2023-05-22T11:35:20.125Z,95422.00
2023-05-22T11:36:20.273Z,95422.00
2023-05-22T11:37:19.167Z,95422.00
2023-05-22T11:38:20.231Z,95422.00
2023-05-22T11:39:21.861Z,95420.00
2023-05-22T11:40:20.799Z,95422.00
2023-05-22T11:41:20.421Z,95418.00
2023-05-22T11:42:20.458Z,95420.00
2023-05-22T11:43:19.482Z,95420.00
2023-05-22T11:44:20.510Z,95416.00
2023-05-22T11:45:19.544Z,95416.00
2023-05-22T11:46:20.626Z,95406.00
2023-05-22T11:47:20.583Z,95416.00